createdAt,value
2022-09-07T00:01:01.441Z,42.99
2022-09-07T00:03:28.787Z,43.10
2022-09-07T00:05:55.957Z,43.33
2022-09-07T00:08:24.214Z,43.43
2022-09-07T00:10:59.172Z,43.32
2022-09-07T00:13:27.733Z,42.99
2022-09-07T00:15:54.685Z,43.42
2022-09-07T00:18:21.559Z,43.10
2022-09-07T00:20:58.186Z,43.39
2022-09-07T00:23:25.006Z,42.90
2022-09-07T00:25:54.124Z,43.27
2022-09-07T00:28:21.131Z,42.55
2022-09-07T00:30:48.226Z,43.02
2022-09-07T00:33:15.332Z,43.18
2022-09-07T00:35:42.351Z,43.28
2022-09-07T00:38:09.311Z,42.67
2022-09-07T00:40:36.359Z,43.15
2022-09-07T00:43:03.607Z,43.18
2022-09-07T00:45:30.416Z,43.23
2022-09-07T00:48:17.756Z,43.17
2022-09-07T00:50:50.731Z,42.70
2022-09-07T00:53:20.771Z,43.00
2022-09-07T00:55:48.304Z,42.89
2022-09-07T00:58:15.196Z,43.19
2022-09-07T01:00:42.291Z,43.21
2022-09-07T01:03:09.151Z,42.92
2022-09-07T01:05:52.042Z,42.56
2022-09-07T01:08:19.091Z,42.23
2022-09-07T01:10:46.874Z,42.27
2022-09-07T01:13:15.179Z,42.80
2022-09-07T01:15:44.411Z,42.68
2022-09-07T01:18:18.839Z,42.36
2022-09-07T01:20:55.347Z,42.11
2022-09-07T01:23:40.239Z,42.43
2022-09-07T01:26:49.075Z,42.50
2022-09-07T01:29:23.666Z,42.43
2022-09-07T01:32:06.064Z,43.11
2022-09-07T01:34:33.410Z,42.91
2022-09-07T01:37:12.307Z,42.95
2022-09-07T01:40:11.878Z,42.79
2022-09-07T01:43:04.755Z,42.68
2022-09-07T01:45:33.127Z,42.76
2022-09-07T01:48:01.478Z,42.94
2022-09-07T01:50:42.472Z,43.06
2022-09-07T01:53:29.659Z,42.97
2022-09-07T01:56:18.271Z,42.57
2022-09-07T01:58:49.095Z,42.40
2022-09-07T02:01:28.061Z,42.35
2022-09-07T02:04:07.695Z,42.77
2022-09-07T02:07:06.867Z,42.77
2022-09-07T02:09:50.795Z,42.83
2022-09-07T02:12:55.631Z,42.26
2022-09-07T02:15:27.432Z,42.75
2022-09-07T02:17:57.403Z,42.53
2022-09-07T02:20:31.346Z,42.56
2022-09-07T02:23:00.105Z,42.66
2022-09-07T02:25:29.375Z,42.86
2022-09-07T02:28:00.922Z,42.80
2022-09-07T02:30:28.014Z,42.84
2022-09-07T02:32:56.355Z,42.72
2022-09-07T02:35:23.266Z,42.69
2022-09-07T02:37:50.422Z,42.71
2022-09-07T02:40:17.318Z,42.52
2022-09-07T02:42:45.327Z,42.44
2022-09-07T02:45:12.562Z,42.92
2022-09-07T02:48:07.414Z,42.60
2022-09-07T02:50:56.527Z,42.33
2022-09-07T02:53:33.889Z,42.29
2022-09-07T02:56:36.126Z,42.47
2022-09-07T02:59:02.998Z,42.50
2022-09-07T03:01:43.500Z,42.64
2022-09-07T03:04:19.745Z,42.74
2022-09-07T03:06:59.078Z,42.52
2022-09-07T03:09:28.290Z,42.55
2022-09-07T03:11:55.365Z,42.82
2022-09-07T03:14:23.845Z,43.08
2022-09-07T03:16:51.679Z,42.89
2022-09-07T03:19:18.852Z,42.62
2022-09-07T03:21:45.825Z,42.99
2022-09-07T03:24:12.709Z,42.76
2022-09-07T03:26:43.154Z,42.59
2022-09-07T03:29:10.022Z,42.69
2022-09-07T03:31:36.909Z,43.05
2022-09-07T03:34:04.131Z,43.05
2022-09-07T03:36:31.093Z,43.09
2022-09-07T03:38:59.403Z,42.70
2022-09-07T03:41:26.974Z,43.03
2022-09-07T03:43:53.933Z,43.04
2022-09-07T03:46:21.216Z,42.81
2022-09-07T03:48:48.881Z,42.93
2022-09-07T03:51:16.873Z,42.70
2022-09-07T03:53:45.077Z,43.25
2022-09-07T03:56:14.321Z,43.20
2022-09-07T03:58:41.194Z,43.00
2022-09-07T04:01:16.163Z,43.02
2022-09-07T04:03:43.397Z,42.99
2022-09-07T04:06:10.336Z,42.79
2022-09-07T04:08:37.702Z,42.73
2022-09-07T04:11:05.756Z,43.04
2022-09-07T04:13:33.246Z,42.73
2022-09-07T04:16:00.216Z,42.97
2022-09-07T04:18:27.411Z,43.14
2022-09-07T04:20:54.338Z,43.24
2022-09-07T04:23:21.320Z,43.33
2022-09-07T04:25:51.864Z,43.31
2022-09-07T04:28:19.650Z,43.19
2022-09-07T04:30:46.955Z,43.25
2022-09-07T04:33:14.237Z,42.89
2022-09-07T04:35:41.649Z,43.18
2022-09-07T04:38:09.185Z,43.35
2022-09-07T04:40:36.294Z,43.60
2022-09-07T04:43:05.484Z,43.39
2022-09-07T04:45:32.339Z,43.62
2022-09-07T04:47:59.449Z,43.69
2022-09-07T04:50:26.370Z,43.93
2022-09-07T04:52:53.233Z,43.85
2022-09-07T04:55:20.434Z,43.63
2022-09-07T04:57:50.508Z,43.26
2022-09-07T05:00:17.569Z,43.29
2022-09-07T05:02:44.777Z,43.57
2022-09-07T05:05:11.720Z,43.33
2022-09-07T05:07:38.744Z,43.06
2022-09-07T05:10:06.040Z,43.14
2022-09-07T05:12:32.941Z,43.21
2022-09-07T05:14:59.824Z,43.05
2022-09-07T05:17:27.009Z,42.76
2022-09-07T05:19:55.032Z,43.19
2022-09-07T05:22:22.418Z,42.53
2022-09-07T05:24:49.545Z,42.79
2022-09-07T05:27:16.399Z,42.44
2022-09-07T05:32:30.436Z,42.12
2022-09-07T05:34:57.655Z,42.06
2022-09-07T05:37:24.588Z,42.30
2022-09-07T05:39:55.109Z,41.70
2022-09-07T05:42:22.240Z,41.58
2022-09-07T05:44:49.255Z,41.44
2022-09-07T05:47:16.431Z,41.57
2022-09-07T05:49:43.355Z,41.46
2022-09-07T05:52:10.761Z,41.38
2022-09-07T05:54:38.129Z,41.30
2022-09-07T05:57:05.207Z,40.91
2022-09-07T05:59:32.190Z,41.28
2022-09-07T06:02:00.101Z,41.34
2022-09-07T06:04:27.097Z,40.69
2022-09-07T06:12:28.436Z,40.89
2022-09-07T06:14:55.536Z,40.68
2022-09-07T06:17:22.422Z,41.10
2022-09-07T06:19:49.311Z,40.54
2022-09-07T06:22:16.425Z,40.98
2022-09-07T06:24:43.369Z,41.25
2022-09-07T06:27:10.450Z,41.46
2022-09-07T06:29:37.695Z,41.01
2022-09-07T06:34:52.060Z,41.35
2022-09-07T06:37:18.897Z,41.25
2022-09-07T06:39:45.831Z,41.21
2022-09-07T06:42:12.995Z,41.29
2022-09-07T06:44:39.863Z,41.29
2022-09-07T06:47:06.752Z,41.26
2022-09-07T06:49:33.949Z,41.31
2022-09-07T06:52:00.845Z,40.82
2022-09-07T06:57:16.722Z,40.99
2022-09-07T06:59:43.589Z,41.12
2022-09-07T07:02:10.481Z,40.83
2022-09-07T07:04:40.787Z,40.78
2022-09-07T07:07:12.424Z,41.04
2022-09-07T07:09:39.830Z,40.66
2022-09-07T07:12:07.110Z,40.93
2022-09-07T07:14:37.265Z,41.19
2022-09-07T07:17:06.996Z,40.73
2022-09-07T07:19:33.909Z,40.86
2022-09-07T07:24:47.866Z,40.94
2022-09-07T07:27:15.147Z,40.39
2022-09-07T07:29:42.002Z,40.46
2022-09-07T07:32:09.162Z,40.57
2022-09-07T07:34:36.037Z,40.43
2022-09-07T07:37:02.931Z,40.73
2022-09-07T07:42:16.894Z,40.31
2022-09-07T07:44:43.961Z,40.62
2022-09-07T07:47:11.092Z,40.50
2022-09-07T07:49:37.984Z,40.39
2022-09-07T07:54:53.159Z,40.46
2022-09-07T07:57:20.442Z,40.37
2022-09-07T07:59:47.275Z,40.24
2022-09-07T08:02:15.543Z,39.94
2022-09-07T08:04:42.698Z,40.05
2022-09-07T08:07:11.283Z,40.20
2022-09-07T08:09:43.564Z,40.26
2022-09-07T08:12:12.422Z,40.07
2022-09-07T08:14:42.667Z,40.11
2022-09-07T08:17:10.612Z,39.56
2022-09-07T08:19:38.090Z,39.89
2022-09-07T08:22:04.993Z,39.84
2022-09-07T08:24:32.178Z,39.92
2022-09-07T08:26:59.514Z,39.90
2022-09-07T08:29:27.243Z,39.82
2022-09-07T08:31:54.256Z,39.87
2022-09-07T08:34:22.020Z,39.90
2022-09-07T08:36:49.021Z,40.13
2022-09-07T08:39:16.110Z,39.74
2022-09-07T08:41:58.366Z,40.12
2022-09-07T08:44:54.242Z,39.64
2022-09-07T08:47:28.551Z,39.57
2022-09-07T08:50:01.331Z,39.64
2022-09-07T08:52:54.902Z,39.98
2022-09-07T08:55:33.795Z,40.20
2022-09-07T08:58:22.217Z,40.20
2022-09-07T09:07:02.258Z,40.36
2022-09-07T09:09:46.048Z,40.28
2022-09-07T09:12:24.751Z,40.21
2022-09-07T09:15:02.752Z,40.22
2022-09-07T09:17:31.818Z,40.25
2022-09-07T09:20:21.015Z,40.45
2022-09-07T09:22:47.839Z,40.18
2022-09-07T09:25:22.633Z,39.99
2022-09-07T09:27:49.997Z,40.04
2022-09-07T09:30:21.833Z,40.39
2022-09-07T09:32:49.972Z,40.05
2022-09-07T09:35:28.579Z,39.98
2022-09-07T09:37:57.708Z,40.07
2022-09-07T09:40:30.551Z,39.96
2022-09-07T09:43:16.308Z,40.10
2022-09-07T09:48:32.736Z,39.46
2022-09-07T09:54:12.141Z,39.71
2022-09-07T09:56:46.157Z,39.48
2022-09-07T10:05:28.985Z,39.24
2022-09-07T10:07:56.913Z,39.49
2022-09-07T10:10:24.895Z,39.34
2022-09-07T10:12:53.211Z,39.65
2022-09-07T10:15:40.006Z,39.64
2022-09-07T10:18:17.239Z,38.74
2022-09-07T10:20:44.058Z,39.32
2022-09-07T10:23:24.363Z,38.97
2022-09-07T10:25:51.331Z,38.83
2022-09-07T10:28:21.134Z,39.14
2022-09-07T10:31:24.976Z,39.10
2022-09-07T10:34:26.114Z,38.92
2022-09-07T10:37:03.634Z,38.87
2022-09-07T10:39:37.204Z,38.38
2022-09-07T10:42:15.866Z,38.64
2022-09-07T10:45:12.285Z,38.88
2022-09-07T10:47:47.953Z,39.00
2022-09-07T10:50:29.820Z,38.74
2022-09-07T10:53:23.536Z,38.84
2022-09-07T10:56:28.062Z,38.77
2022-09-07T10:59:04.531Z,38.59
2022-09-07T11:01:38.023Z,38.66
2022-09-07T11:04:25.851Z,38.59
2022-09-07T11:06:55.430Z,38.14
2022-09-07T11:09:41.301Z,38.12
2022-09-07T11:12:32.968Z,38.10
2022-09-07T11:15:14.084Z,38.00
2022-09-07T11:17:52.787Z,37.75
2022-09-07T11:20:41.982Z,38.02
2022-09-07T11:23:12.760Z,37.88
2022-09-07T11:26:00.375Z,37.61
2022-09-07T11:28:46.293Z,38.10
2022-09-07T11:31:41.839Z,38.02
2022-09-07T11:34:27.297Z,37.63
2022-09-07T11:37:01.125Z,37.30
2022-09-07T11:39:44.112Z,37.17
2022-09-07T11:45:23.968Z,37.01
2022-09-07T11:48:03.988Z,37.16
2022-09-07T11:50:32.977Z,37.53
2022-09-07T11:53:07.242Z,37.02
2022-09-07T11:55:37.608Z,37.32
2022-09-07T11:58:47.313Z,37.23
2022-09-07T12:01:29.056Z,37.47
2022-09-07T12:04:24.948Z,37.56
2022-09-07T12:07:16.551Z,37.60
2022-09-07T12:09:43.331Z,37.33
2022-09-07T12:12:31.499Z,36.82
2022-09-07T12:15:17.295Z,36.81
2022-09-07T12:17:47.356Z,36.86
2022-09-07T12:20:18.062Z,36.32
2022-09-07T12:23:05.413Z,36.94
2022-09-07T12:25:33.519Z,36.64
2022-09-07T12:28:00.600Z,36.86
2022-09-07T12:30:30.165Z,37.10
2022-09-07T12:32:58.530Z,37.14
2022-09-07T12:35:28.860Z,37.23
2022-09-07T12:37:59.658Z,37.10
2022-09-07T12:40:33.310Z,37.07
2022-09-07T12:43:32.451Z,37.11
2022-09-07T12:46:00.873Z,37.08
2022-09-07T12:49:01.591Z,37.40
2022-09-07T12:54:26.132Z,37.39
2022-09-07T13:00:05.453Z,37.26
2022-09-07T13:02:59.912Z,37.26
2022-09-07T13:05:39.074Z,37.34
2022-09-07T13:08:18.597Z,37.44
2022-09-07T13:10:46.505Z,37.61
2022-09-07T13:14:02.748Z,37.39
2022-09-07T13:16:12.207Z,37.31
2022-09-07T13:18:41.274Z,37.32
2022-09-07T13:21:12.044Z,37.23
2022-09-07T13:23:51.354Z,37.48
2022-09-07T13:26:57.602Z,37.26
2022-09-07T13:30:18.302Z,37.32
2022-09-07T13:35:32.367Z,37.20
2022-09-07T13:38:03.016Z,37.59
2022-09-07T13:40:39.656Z,37.44
2022-09-07T13:43:06.973Z,37.31
2022-09-07T13:45:55.820Z,37.19
2022-09-07T13:48:35.716Z,37.38
2022-09-07T13:51:34.896Z,37.23
2022-09-07T13:54:06.440Z,37.46
2022-09-07T13:56:53.502Z,37.84
2022-09-07T13:59:25.659Z,37.63
2022-09-07T14:01:52.566Z,37.51
2022-09-07T14:04:22.427Z,37.36
2022-09-07T14:06:49.572Z,37.11
2022-09-07T14:09:21.155Z,37.23
2022-09-07T14:11:49.599Z,36.82
2022-09-07T14:14:17.815Z,37.23
2022-09-07T14:17:04.728Z,37.12
2022-09-07T14:19:41.698Z,36.82
2022-09-07T14:22:17.521Z,37.09
2022-09-07T14:24:49.415Z,36.40
2022-09-07T14:27:31.537Z,36.77
2022-09-07T14:30:23.600Z,36.83
2022-09-07T14:32:52.705Z,37.44
2022-09-07T14:35:21.536Z,37.34
2022-09-07T14:37:48.519Z,37.11
2022-09-07T14:40:19.308Z,37.18
2022-09-07T14:42:46.436Z,37.01
2022-09-07T14:45:22.528Z,37.48
2022-09-07T14:47:56.389Z,37.72
2022-09-07T14:50:30.899Z,37.33
2022-09-07T14:55:47.844Z,36.87
2022-09-07T14:58:14.872Z,37.29
2022-09-07T15:00:42.297Z,36.57
2022-09-07T15:03:31.776Z,36.87
2022-09-07T15:06:01.251Z,37.17
2022-09-07T15:08:48.562Z,37.31
2022-09-07T15:11:34.075Z,36.79
2022-09-07T15:14:11.807Z,37.02
2022-09-07T15:16:41.385Z,37.31
2022-09-07T15:19:18.449Z,37.74
2022-09-07T15:21:45.588Z,37.77
2022-09-07T15:24:12.493Z,37.27
2022-09-07T15:29:29.386Z,37.73
2022-09-07T15:32:03.455Z,37.43
2022-09-07T15:34:32.361Z,37.38
2022-09-07T15:37:00.890Z,37.64
2022-09-07T15:39:29.931Z,37.49
2022-09-07T15:41:58.224Z,38.04
2022-09-07T15:44:28.470Z,37.57
2022-09-07T15:49:47.731Z,37.92
2022-09-07T15:52:17.170Z,37.89
2022-09-07T15:54:44.344Z,37.69
2022-09-07T15:59:58.560Z,37.94
2022-09-07T16:05:12.807Z,37.63
2022-09-07T16:10:31.079Z,38.09
2022-09-07T16:13:02.835Z,37.71
2022-09-07T16:15:46.707Z,37.59
2022-09-07T16:18:16.537Z,38.02
2022-09-07T16:20:44.077Z,37.85
2022-09-07T16:23:13.657Z,37.77
2022-09-07T16:25:42.385Z,38.14
2022-09-07T16:28:09.581Z,37.85
2022-09-07T16:30:39.495Z,37.66
2022-09-07T16:33:06.573Z,37.62
2022-09-07T16:35:33.692Z,37.73
2022-09-07T16:40:51.020Z,37.82
2022-09-07T16:43:17.993Z,38.12
2022-09-07T16:48:32.997Z,37.71
2022-09-07T16:51:02.645Z,37.73
2022-09-07T16:53:30.739Z,37.96
2022-09-07T16:56:08.074Z,37.66
2022-09-07T16:58:37.202Z,37.92
2022-09-07T17:01:05.685Z,37.75
2022-09-07T17:03:32.729Z,37.92
2022-09-07T17:06:00.407Z,37.73
2022-09-07T17:08:27.713Z,38.08
2022-09-07T17:11:02.597Z,37.99
2022-09-07T17:13:31.113Z,38.36
2022-09-07T17:16:34.271Z,38.26
2022-09-07T17:21:53.772Z,38.21
2022-09-07T17:24:21.112Z,37.99
2022-09-07T17:26:47.992Z,38.37
2022-09-07T17:29:14.952Z,38.26
2022-09-07T17:34:30.024Z,38.32
2022-09-07T17:36:57.329Z,38.33
2022-09-07T17:39:24.150Z,38.48
2022-09-07T17:41:54.568Z,38.15
2022-09-07T17:44:23.236Z,38.09
2022-09-07T17:46:50.319Z,37.96
2022-09-07T17:49:17.848Z,38.42
2022-09-07T17:51:45.111Z,37.97
2022-09-07T17:54:14.791Z,38.04
2022-09-07T17:56:41.854Z,38.48
2022-09-07T18:01:56.147Z,38.32
2022-09-07T18:04:23.475Z,38.49
2022-09-07T18:06:50.478Z,38.69
2022-09-07T18:09:19.729Z,38.50
2022-09-07T18:11:48.625Z,38.71
2022-09-07T18:14:16.636Z,38.73
2022-09-07T18:16:43.952Z,38.67
2022-09-07T18:19:11.301Z,38.69
2022-09-07T18:21:38.333Z,38.53
2022-09-07T18:24:07.666Z,38.46
2022-09-07T18:26:36.462Z,38.84
2022-09-07T18:29:04.115Z,38.48
2022-09-07T18:31:31.821Z,38.64
2022-09-07T18:33:58.995Z,38.65
2022-09-07T18:36:26.057Z,38.66
2022-09-07T18:38:53.304Z,38.95
2022-09-07T18:41:20.498Z,38.94
2022-09-07T18:43:48.054Z,39.03
2022-09-07T18:46:16.561Z,38.73
2022-09-07T18:48:43.905Z,38.47
2022-09-07T18:51:10.893Z,38.84
2022-09-07T18:53:37.917Z,38.66
2022-09-07T18:56:10.635Z,39.12
2022-09-07T18:58:38.337Z,38.89
2022-09-07T19:01:11.267Z,39.17
2022-09-07T19:03:38.632Z,39.03
2022-09-07T19:06:07.379Z,39.02
2022-09-07T19:08:35.383Z,38.92
2022-09-07T19:11:12.588Z,39.18
2022-09-07T19:13:39.434Z,39.31
2022-09-07T19:16:14.177Z,39.57
2022-09-07T19:18:48.050Z,39.47
2022-09-07T19:21:17.001Z,39.30
2022-09-07T19:23:44.178Z,39.58
2022-09-07T19:26:11.303Z,39.48
2022-09-07T19:28:38.605Z,39.59
2022-09-07T19:31:06.002Z,39.55
2022-09-07T19:33:33.654Z,39.57
2022-09-07T19:36:05.816Z,39.57
2022-09-07T19:38:32.804Z,39.56
2022-09-07T19:41:00.276Z,39.65
2022-09-07T19:43:30.815Z,39.58
2022-09-07T19:45:57.656Z,40.06
2022-09-07T19:48:24.493Z,39.64
2022-09-07T19:50:51.697Z,39.74
2022-09-07T19:53:18.740Z,39.62
2022-09-07T19:55:45.630Z,39.61
2022-09-07T19:58:12.677Z,39.63
2022-09-07T20:00:42.875Z,39.51
2022-09-07T20:03:10.588Z,39.33
2022-09-07T20:05:38.773Z,39.23
2022-09-07T20:08:05.629Z,39.92
2022-09-07T20:10:33.292Z,39.77
2022-09-07T20:13:00.372Z,39.78
2022-09-07T20:15:27.384Z,39.45
2022-09-07T20:17:54.256Z,39.49
2022-09-07T20:20:21.805Z,40.00
2022-09-07T20:22:48.697Z,39.66
2022-09-07T20:25:15.548Z,39.85
2022-09-07T20:27:42.617Z,39.79
2022-09-07T20:30:09.985Z,39.62
2022-09-07T20:32:36.785Z,40.06
2022-09-07T20:35:03.989Z,39.55
2022-09-07T20:37:31.082Z,39.82
2022-09-07T20:39:57.940Z,39.64
2022-09-07T20:42:25.035Z,39.88
2022-09-07T20:44:51.896Z,39.92
2022-09-07T20:47:18.672Z,40.15
2022-09-07T20:49:45.766Z,40.02
2022-09-07T20:52:12.612Z,39.78
2022-09-07T20:54:39.433Z,39.64
2022-09-07T20:57:06.473Z,40.25
2022-09-07T20:59:33.281Z,39.91
2022-09-07T21:02:00.216Z,39.65
2022-09-07T21:04:27.552Z,40.33
2022-09-07T21:06:54.385Z,40.19
2022-09-07T21:09:21.298Z,40.30
2022-09-07T21:11:50.166Z,39.77
2022-09-07T21:14:19.828Z,40.16
2022-09-07T21:16:46.673Z,40.42
2022-09-07T21:19:13.772Z,40.11
2022-09-07T21:21:41.672Z,40.42
2022-09-07T21:24:19.536Z,40.23
2022-09-07T21:26:47.040Z,40.11
2022-09-07T21:29:19.675Z,40.13
2022-09-07T21:31:46.747Z,40.10
2022-09-07T21:34:14.195Z,40.52
2022-09-07T21:36:40.972Z,40.59
2022-09-07T21:39:12.469Z,40.34
2022-09-07T21:41:41.548Z,40.22
2022-09-07T21:44:09.371Z,40.02
2022-09-07T21:46:36.218Z,40.34
2022-09-07T21:49:04.747Z,40.17
2022-09-07T21:51:31.924Z,40.28
2022-09-07T21:53:59.923Z,40.29
2022-09-07T21:56:31.187Z,40.12
2022-09-07T21:58:59.070Z,40.55
2022-09-07T22:01:26.913Z,40.59
2022-09-07T22:03:58.891Z,40.28
2022-09-07T22:06:27.420Z,40.41
2022-09-07T22:08:54.596Z,40.63
2022-09-07T22:11:23.143Z,40.42
2022-09-07T22:13:53.167Z,40.71
2022-09-07T22:16:20.166Z,40.71
2022-09-07T22:18:47.555Z,40.40
2022-09-07T22:21:18.696Z,40.45
2022-09-07T22:23:47.354Z,40.56
2022-09-07T22:26:15.042Z,40.39
2022-09-07T22:28:41.935Z,40.94
2022-09-07T22:31:16.657Z,41.01
2022-09-07T22:33:44.175Z,40.78
2022-09-07T22:36:14.417Z,40.52
2022-09-07T22:38:42.221Z,40.95
2022-09-07T22:41:14.442Z,40.69
2022-09-07T22:43:41.469Z,41.18
2022-09-07T22:46:08.660Z,40.66
2022-09-07T22:48:35.688Z,40.88
2022-09-07T22:51:03.510Z,40.65
2022-09-07T22:53:32.406Z,40.84
2022-09-07T22:55:59.612Z,40.92
2022-09-07T22:58:29.108Z,41.04
2022-09-07T23:01:01.806Z,41.25
2022-09-07T23:03:29.406Z,40.57
2022-09-07T23:05:57.101Z,41.13
2022-09-07T23:08:24.682Z,41.19
2022-09-07T23:10:51.849Z,40.78
2022-09-07T23:13:19.108Z,40.71
2022-09-07T23:15:46.295Z,40.93
2022-09-07T23:18:17.751Z,41.19
2022-09-07T23:20:44.648Z,41.32
2022-09-07T23:23:11.515Z,41.30
2022-09-07T23:25:38.983Z,41.04
2022-09-07T23:28:06.276Z,40.98
2022-09-07T23:30:35.514Z,40.71
2022-09-07T23:33:03.096Z,41.45
2022-09-07T23:35:29.954Z,41.24
2022-09-07T23:37:56.998Z,40.84
2022-09-07T23:40:24.233Z,41.36
2022-09-07T23:42:51.062Z,41.48
2022-09-07T23:45:17.859Z,41.00
2022-09-07T23:47:44.911Z,41.16
2022-09-07T23:50:11.727Z,41.47
2022-09-07T23:52:38.523Z,41.10
2022-09-07T23:55:06.494Z,41.37
2022-09-07T23:57:33.311Z,41.08
